sensor_id;sensor_type;location;lat;lon;timestamp;P1;durP1;ratioP1;P2;durP2;ratioP2
48588;SDS011;34369;51.174;6.738;2022-12-31T00:01:21;25.40;;;23.75;;
48588;SDS011;34369;51.174;6.738;2022-12-31T00:03:55;25.83;;;24.13;;
48588;SDS011;34369;51.174;6.738;2022-12-31T00:06:33;26.00;;;24.30;;
48588;SDS011;34369;51.174;6.738;2022-12-31T00:09:08;25.15;;;23.45;;
48588;SDS011;34369;51.174;6.738;2022-12-31T00:11:42;25.35;;;23.75;;
48588;SDS011;34369;51.174;6.738;2022-12-31T00:14:14;25.60;;;23.90;;
48588;SDS011;34369;51.174;6.738;2022-12-31T00:16:46;25.30;;;23.60;;
48588;SDS011;34369;51.174;6.738;2022-12-31T00:19:19;25.90;;;24.20;;
48588;SDS011;34369;51.174;6.738;2022-12-31T00:21:52;25.15;;;23.45;;
48588;SDS011;34369;51.174;6.738;2022-12-31T00:24:24;25.30;;;23.60;;
48588;SDS011;34369;51.174;6.738;2022-12-31T00:27:00;25.95;;;24.25;;
48588;SDS011;34369;51.174;6.738;2022-12-31T00:29:32;26.05;;;24.25;;
48588;SDS011;34369;51.174;6.738;2022-12-31T00:32:05;26.00;;;24.25;;
48588;SDS011;34369;51.174;6.738;2022-12-31T00:34:37;25.60;;;23.90;;
48588;SDS011;34369;51.174;6.738;2022-12-31T00:37:11;26.10;;;24.40;;
48588;SDS011;34369;51.174;6.738;2022-12-31T00:39:44;25.75;;;24.05;;
48588;SDS011;34369;51.174;6.738;2022-12-31T00:42:16;26.05;;;24.38;;
48588;SDS011;34369;51.174;6.738;2022-12-31T00:44:50;25.75;;;24.05;;
48588;SDS011;34369;51.174;6.738;2022-12-31T00:47:22;26.30;;;24.30;;
48588;SDS011;34369;51.174;6.738;2022-12-31T00:49:55;25.85;;;24.15;;
48588;SDS011;34369;51.174;6.738;2022-12-31T00:52:29;26.98;;;25.27;;
48588;SDS011;34369;51.174;6.738;2022-12-31T00:55:01;26.70;;;24.80;;
48588;SDS011;34369;51.174;6.738;2022-12-31T00:57:35;25.63;;;24.00;;
48588;SDS011;34369;51.174;6.738;2022-12-31T01:00:08;25.70;;;24.00;;
48588;SDS011;34369;51.174;6.738;2022-12-31T01:02:48;25.73;;;23.85;;
48588;SDS011;34369;51.174;6.738;2022-12-31T01:05:21;25.17;;;23.48;;
48588;SDS011;34369;51.174;6.738;2022-12-31T01:07:57;26.38;;;24.58;;
48588;SDS011;34369;51.174;6.738;2022-12-31T01:10:29;25.35;;;23.65;;
48588;SDS011;34369;51.174;6.738;2022-12-31T01:13:19;24.65;;;23.05;;
48588;SDS011;34369;51.174;6.738;2022-12-31T01:15:52;25.00;;;23.40;;
48588;SDS011;34369;51.174;6.738;2022-12-31T01:18:24;25.25;;;23.65;;
48588;SDS011;34369;51.174;6.738;2022-12-31T01:20:59;26.58;;;24.88;;
48588;SDS011;34369;51.174;6.738;2022-12-31T01:23:33;25.38;;;23.67;;
48588;SDS011;34369;51.174;6.738;2022-12-31T01:26:06;24.95;;;23.17;;
48588;SDS011;34369;51.174;6.738;2022-12-31T01:28:41;26.10;;;24.40;;
48588;SDS011;34369;51.174;6.738;2022-12-31T01:31:16;25.75;;;24.05;;
48588;SDS011;34369;51.174;6.738;2022-12-31T01:33:51;25.55;;;23.85;;
48588;SDS011;34369;51.174;6.738;2022-12-31T01:36:25;25.50;;;23.80;;
48588;SDS011;34369;51.174;6.738;2022-12-31T01:39:01;25.52;;;23.83;;
48588;SDS011;34369;51.174;6.738;2022-12-31T01:41:36;26.02;;;23.75;;
48588;SDS011;34369;51.174;6.738;2022-12-31T01:47:30;25.23;;;23.52;;
48588;SDS011;34369;51.174;6.738;2022-12-31T01:50:08;24.70;;;23.10;;
48588;SDS011;34369;51.174;6.738;2022-12-31T01:52:45;25.20;;;23.45;;
48588;SDS011;34369;51.174;6.738;2022-12-31T01:55:23;25.08;;;23.48;;
48588;SDS011;34369;51.174;6.738;2022-12-31T01:57:59;24.90;;;23.30;;
48588;SDS011;34369;51.174;6.738;2022-12-31T02:00:36;25.17;;;23.58;;
48588;SDS011;34369;51.174;6.738;2022-12-31T02:03:09;24.38;;;22.77;;
48588;SDS011;34369;51.174;6.738;2022-12-31T02:05:44;24.92;;;23.33;;
48588;SDS011;34369;51.174;6.738;2022-12-31T02:08:23;24.05;;;22.45;;
48588;SDS011;34369;51.174;6.738;2022-12-31T02:10:56;24.50;;;22.90;;
48588;SDS011;34369;51.174;6.738;2022-12-31T02:13:29;24.63;;;23.02;;
48588;SDS011;34369;51.174;6.738;2022-12-31T02:16:02;25.00;;;23.40;;
48588;SDS011;34369;51.174;6.738;2022-12-31T02:18:43;24.13;;;22.52;;
48588;SDS011;34369;51.174;6.738;2022-12-31T02:21:30;24.98;;;23.38;;
48588;SDS011;34369;51.174;6.738;2022-12-31T02:24:19;25.23;;;23.63;;
48588;SDS011;34369;51.174;6.738;2022-12-31T02:27:51;24.60;;;23.00;;
48588;SDS011;34369;51.174;6.738;2022-12-31T02:30:37;23.90;;;22.30;;
48588;SDS011;34369;51.174;6.738;2022-12-31T02:33:15;24.83;;;23.23;;
48588;SDS011;34369;51.174;6.738;2022-12-31T02:35:55;25.20;;;23.60;;
48588;SDS011;34369;51.174;6.738;2022-12-31T02:38:31;24.42;;;22.63;;
48588;SDS011;34369;51.174;6.738;2022-12-31T02:41:10;24.60;;;23.00;;
48588;SDS011;34369;51.174;6.738;2022-12-31T02:44:17;23.55;;;21.95;;
48588;SDS011;34369;51.174;6.738;2022-12-31T02:47:03;24.45;;;22.85;;
48588;SDS011;34369;51.174;6.738;2022-12-31T02:49:52;23.98;;;22.38;;
48588;SDS011;34369;51.174;6.738;2022-12-31T02:52:41;23.85;;;22.15;;
48588;SDS011;34369;51.174;6.738;2022-12-31T02:55:24;24.35;;;22.75;;
48588;SDS011;34369;51.174;6.738;2022-12-31T02:58:06;24.70;;;23.00;;
48588;SDS011;34369;51.174;6.738;2022-12-31T03:00:47;24.08;;;22.48;;
48588;SDS011;34369;51.174;6.738;2022-12-31T03:03:41;24.15;;;22.55;;
48588;SDS011;34369;51.174;6.738;2022-12-31T03:06:14;24.23;;;22.63;;
48588;SDS011;34369;51.174;6.738;2022-12-31T03:08:47;24.90;;;23.30;;
48588;SDS011;34369;51.174;6.738;2022-12-31T03:11:35;24.35;;;22.75;;
48588;SDS011;34369;51.174;6.738;2022-12-31T03:14:25;24.30;;;22.70;;
48588;SDS011;34369;51.174;6.738;2022-12-31T03:16:57;24.80;;;23.20;;
48588;SDS011;34369;51.174;6.738;2022-12-31T03:19:31;23.90;;;22.30;;
48588;SDS011;34369;51.174;6.738;2022-12-31T03:22:21;24.25;;;22.65;;
48588;SDS011;34369;51.174;6.738;2022-12-31T03:25:01;25.25;;;23.55;;
48588;SDS011;34369;51.174;6.738;2022-12-31T03:27:54;24.40;;;22.80;;
48588;SDS011;34369;51.174;6.738;2022-12-31T03:30:27;24.10;;;22.50;;
48588;SDS011;34369;51.174;6.738;2022-12-31T03:33:00;23.60;;;22.00;;
48588;SDS011;34369;51.174;6.738;2022-12-31T03:35:35;24.38;;;22.77;;
48588;SDS011;34369;51.174;6.738;2022-12-31T03:38:09;24.85;;;23.15;;
48588;SDS011;34369;51.174;6.738;2022-12-31T03:40:42;25.75;;;24.05;;
48588;SDS011;34369;51.174;6.738;2022-12-31T03:43:16;24.30;;;22.70;;
48588;SDS011;34369;51.174;6.738;2022-12-31T03:45:49;24.40;;;22.80;;
48588;SDS011;34369;51.174;6.738;2022-12-31T03:48:24;24.17;;;22.58;;
48588;SDS011;34369;51.174;6.738;2022-12-31T03:50:58;23.67;;;22.08;;
48588;SDS011;34369;51.174;6.738;2022-12-31T03:53:30;25.48;;;23.80;;
48588;SDS011;34369;51.174;6.738;2022-12-31T03:56:04;23.98;;;22.38;;
48588;SDS011;34369;51.174;6.738;2022-12-31T03:58:38;24.95;;;23.25;;
48588;SDS011;34369;51.174;6.738;2022-12-31T04:01:10;24.60;;;22.90;;
48588;SDS011;34369;51.174;6.738;2022-12-31T04:03:43;24.67;;;23.08;;
48588;SDS011;34369;51.174;6.738;2022-12-31T04:06:17;25.38;;;23.60;;
48588;SDS011;34369;51.174;6.738;2022-12-31T04:08:49;24.05;;;22.45;;
48588;SDS011;34369;51.174;6.738;2022-12-31T04:11:21;24.90;;;23.10;;
48588;SDS011;34369;51.174;6.738;2022-12-31T04:13:54;25.00;;;23.30;;
48588;SDS011;34369;51.174;6.738;2022-12-31T04:16:28;24.33;;;22.73;;
48588;SDS011;34369;51.174;6.738;2022-12-31T04:19:01;23.70;;;22.10;;
48588;SDS011;34369;51.174;6.738;2022-12-31T04:21:36;24.42;;;22.83;;
48588;SDS011;34369;51.174;6.738;2022-12-31T04:24:10;23.77;;;22.17;;
48588;SDS011;34369;51.174;6.738;2022-12-31T04:26:42;24.13;;;22.52;;
48588;SDS011;34369;51.174;6.738;2022-12-31T04:29:14;24.90;;;23.20;;
48588;SDS011;34369;51.174;6.738;2022-12-31T04:31:47;23.90;;;22.30;;
48588;SDS011;34369;51.174;6.738;2022-12-31T04:34:19;24.05;;;22.42;;
48588;SDS011;34369;51.174;6.738;2022-12-31T04:36:53;24.30;;;22.70;;
48588;SDS011;34369;51.174;6.738;2022-12-31T04:39:26;24.70;;;23.00;;
48588;SDS011;34369;51.174;6.738;2022-12-31T04:41:59;24.48;;;22.88;;
48588;SDS011;34369;51.174;6.738;2022-12-31T04:44:32;25.17;;;23.48;;
48588;SDS011;34369;51.174;6.738;2022-12-31T04:47:04;24.35;;;22.65;;
48588;SDS011;34369;51.174;6.738;2022-12-31T04:49:36;23.98;;;22.30;;
48588;SDS011;34369;51.174;6.738;2022-12-31T04:52:10;24.60;;;22.90;;
48588;SDS011;34369;51.174;6.738;2022-12-31T04:54:42;24.02;;;22.40;;
48588;SDS011;34369;51.174;6.738;2022-12-31T04:59:51;24.17;;;22.48;;
48588;SDS011;34369;51.174;6.738;2022-12-31T05:02:23;24.75;;;23.05;;
48588;SDS011;34369;51.174;6.738;2022-12-31T05:04:55;24.20;;;22.50;;
48588;SDS011;34369;51.174;6.738;2022-12-31T05:07:30;24.75;;;23.10;;
48588;SDS011;34369;51.174;6.738;2022-12-31T05:10:03;24.42;;;22.83;;
48588;SDS011;34369;51.174;6.738;2022-12-31T05:12:36;24.80;;;23.10;;
48588;SDS011;34369;51.174;6.738;2022-12-31T05:15:09;24.80;;;23.10;;
48588;SDS011;34369;51.174;6.738;2022-12-31T05:17:44;24.60;;;22.90;;
48588;SDS011;34369;51.174;6.738;2022-12-31T05:20:16;24.40;;;22.77;;
48588;SDS011;34369;51.174;6.738;2022-12-31T05:22:50;24.65;;;22.95;;
48588;SDS011;34369;51.174;6.738;2022-12-31T05:25:24;24.35;;;22.67;;
48588;SDS011;34369;51.174;6.738;2022-12-31T05:27:57;23.92;;;22.33;;
48588;SDS011;34369;51.174;6.738;2022-12-31T05:30:29;24.00;;;22.40;;
48588;SDS011;34369;51.174;6.738;2022-12-31T05:33:02;24.75;;;23.05;;
48588;SDS011;34369;51.174;6.738;2022-12-31T05:35:34;23.67;;;22.08;;
48588;SDS011;34369;51.174;6.738;2022-12-31T05:38:08;23.95;;;22.30;;
48588;SDS011;34369;51.174;6.738;2022-12-31T05:40:40;23.30;;;21.60;;
48588;SDS011;34369;51.174;6.738;2022-12-31T05:43:12;24.58;;;22.77;;
48588;SDS011;34369;51.174;6.738;2022-12-31T05:45:45;24.90;;;23.20;;
48588;SDS011;34369;51.174;6.738;2022-12-31T05:48:17;24.63;;;22.80;;
48588;SDS011;34369;51.174;6.738;2022-12-31T05:50:50;24.00;;;22.40;;
48588;SDS011;34369;51.174;6.738;2022-12-31T05:53:24;24.15;;;22.35;;
48588;SDS011;34369;51.174;6.738;2022-12-31T05:55:56;24.23;;;22.40;;
48588;SDS011;34369;51.174;6.738;2022-12-31T05:58:29;24.10;;;22.40;;
48588;SDS011;34369;51.174;6.738;2022-12-31T06:01:02;23.70;;;22.08;;
48588;SDS011;34369;51.174;6.738;2022-12-31T06:03:35;24.38;;;22.67;;
48588;SDS011;34369;51.174;6.738;2022-12-31T06:06:07;24.60;;;22.90;;
48588;SDS011;34369;51.174;6.738;2022-12-31T06:08:41;24.00;;;22.30;;
48588;SDS011;34369;51.174;6.738;2022-12-31T06:11:14;24.42;;;22.73;;
48588;SDS011;34369;51.174;6.738;2022-12-31T06:13:46;24.55;;;22.85;;
48588;SDS011;34369;51.174;6.738;2022-12-31T06:16:18;24.10;;;22.50;;
48588;SDS011;34369;51.174;6.738;2022-12-31T06:18:53;23.48;;;21.83;;
48588;SDS011;34369;51.174;6.738;2022-12-31T06:21:25;24.90;;;23.02;;
48588;SDS011;34369;51.174;6.738;2022-12-31T06:24:01;23.70;;;22.10;;
48588;SDS011;34369;51.174;6.738;2022-12-31T06:26:33;23.90;;;22.20;;
48588;SDS011;34369;51.174;6.738;2022-12-31T06:29:06;23.20;;;21.50;;
48588;SDS011;34369;51.174;6.738;2022-12-31T06:31:39;23.75;;;22.05;;
48588;SDS011;34369;51.174;6.738;2022-12-31T06:34:11;24.15;;;22.48;;
48588;SDS011;34369;51.174;6.738;2022-12-31T06:36:44;24.15;;;22.33;;
48588;SDS011;34369;51.174;6.738;2022-12-31T06:39:17;24.17;;;22.58;;
48588;SDS011;34369;51.174;6.738;2022-12-31T06:41:49;23.70;;;22.10;;
48588;SDS011;34369;51.174;6.738;2022-12-31T06:44:22;23.98;;;22.38;;
48588;SDS011;34369;51.174;6.738;2022-12-31T06:46:54;24.27;;;22.48;;
48588;SDS011;34369;51.174;6.738;2022-12-31T06:49:27;24.80;;;22.90;;
48588;SDS011;34369;51.174;6.738;2022-12-31T06:52:00;24.45;;;22.73;;
48588;SDS011;34369;51.174;6.738;2022-12-31T06:54:35;24.60;;;22.90;;
48588;SDS011;34369;51.174;6.738;2022-12-31T06:57:07;23.33;;;21.63;;
48588;SDS011;34369;51.174;6.738;2022-12-31T06:59:41;23.75;;;22.15;;
48588;SDS011;34369;51.174;6.738;2022-12-31T07:02:21;23.88;;;22.27;;
48588;SDS011;34369;51.174;6.738;2022-12-31T07:05:25;23.75;;;21.95;;
48588;SDS011;34369;51.174;6.738;2022-12-31T07:08:09;24.20;;;22.50;;
48588;SDS011;34369;51.174;6.738;2022-12-31T07:10:58;24.10;;;22.40;;
48588;SDS011;34369;51.174;6.738;2022-12-31T07:13:51;24.60;;;22.90;;
48588;SDS011;34369;51.174;6.738;2022-12-31T07:16:35;23.83;;;22.13;;
48588;SDS011;34369;51.174;6.738;2022-12-31T07:19:27;24.42;;;22.63;;
48588;SDS011;34369;51.174;6.738;2022-12-31T07:22:15;24.40;;;22.70;;
48588;SDS011;34369;51.174;6.738;2022-12-31T07:24:50;24.30;;;22.50;;
48588;SDS011;34369;51.174;6.738;2022-12-31T07:27:32;23.23;;;21.63;;
48588;SDS011;34369;51.174;6.738;2022-12-31T07:30:19;24.42;;;22.63;;
48588;SDS011;34369;51.174;6.738;2022-12-31T07:32:59;24.50;;;22.80;;
48588;SDS011;34369;51.174;6.738;2022-12-31T07:35:48;24.05;;;22.35;;
48588;SDS011;34369;51.174;6.738;2022-12-31T07:38:36;23.90;;;22.20;;
48588;SDS011;34369;51.174;6.738;2022-12-31T07:41:21;23.63;;;22.02;;
48588;SDS011;34369;51.174;6.738;2022-12-31T07:44:13;23.77;;;22.10;;
48588;SDS011;34369;51.174;6.738;2022-12-31T07:47:03;23.70;;;21.85;;
48588;SDS011;34369;51.174;6.738;2022-12-31T07:49:51;24.20;;;22.60;;
48588;SDS011;34369;51.174;6.738;2022-12-31T07:52:25;24.38;;;22.58;;
48588;SDS011;34369;51.174;6.738;2022-12-31T07:54:59;23.55;;;21.85;;
48588;SDS011;34369;51.174;6.738;2022-12-31T07:57:32;23.48;;;21.88;;
48588;SDS011;34369;51.174;6.738;2022-12-31T08:00:14;23.40;;;21.70;;
48588;SDS011;34369;51.174;6.738;2022-12-31T08:02:59;23.58;;;21.88;;
48588;SDS011;34369;51.174;6.738;2022-12-31T08:05:48;23.65;;;22.00;;
48588;SDS011;34369;51.174;6.738;2022-12-31T08:08:34;23.90;;;22.20;;
48588;SDS011;34369;51.174;6.738;2022-12-31T08:11:17;23.80;;;22.00;;
48588;SDS011;34369;51.174;6.738;2022-12-31T08:14:01;23.52;;;21.88;;
48588;SDS011;34369;51.174;6.738;2022-12-31T08:16:37;24.27;;;22.58;;
48588;SDS011;34369;51.174;6.738;2022-12-31T08:19:12;23.70;;;22.00;;
48588;SDS011;34369;51.174;6.738;2022-12-31T08:21:59;23.27;;;21.67;;
48588;SDS011;34369;51.174;6.738;2022-12-31T08:24:56;24.92;;;23.13;;
48588;SDS011;34369;51.174;6.738;2022-12-31T08:27:42;23.88;;;22.10;;
48588;SDS011;34369;51.174;6.738;2022-12-31T08:30:27;23.80;;;22.10;;
48588;SDS011;34369;51.174;6.738;2022-12-31T08:33:15;23.90;;;22.20;;
48588;SDS011;34369;51.174;6.738;2022-12-31T08:35:57;23.17;;;21.58;;
48588;SDS011;34369;51.174;6.738;2022-12-31T08:38:59;23.80;;;22.08;;
48588;SDS011;34369;51.174;6.738;2022-12-31T08:41:39;23.60;;;22.00;;
48588;SDS011;34369;51.174;6.738;2022-12-31T08:44:17;23.95;;;22.33;;
48588;SDS011;34369;51.174;6.738;2022-12-31T08:47:02;23.65;;;21.92;;
48588;SDS011;34369;51.174;6.738;2022-12-31T08:49:47;23.88;;;22.27;;
48588;SDS011;34369;51.174;6.738;2022-12-31T08:52:23;23.50;;;21.80;;
48588;SDS011;34369;51.174;6.738;2022-12-31T08:54:57;23.25;;;21.65;;
48588;SDS011;34369;51.174;6.738;2022-12-31T08:57:33;23.55;;;21.85;;
48588;SDS011;34369;51.174;6.738;2022-12-31T09:00:16;23.38;;;21.58;;
48588;SDS011;34369;51.174;6.738;2022-12-31T09:02:58;23.38;;;21.58;;
48588;SDS011;34369;51.174;6.738;2022-12-31T09:05:59;23.70;;;22.00;;
48588;SDS011;34369;51.174;6.738;2022-12-31T09:08:40;23.90;;;22.10;;
48588;SDS011;34369;51.174;6.738;2022-12-31T09:11:22;23.85;;;22.15;;
48588;SDS011;34369;51.174;6.738;2022-12-31T09:14:07;24.30;;;22.60;;
48588;SDS011;34369;51.174;6.738;2022-12-31T09:16:58;24.38;;;22.67;;
48588;SDS011;34369;51.174;6.738;2022-12-31T09:19:38;24.05;;;22.25;;
48588;SDS011;34369;51.174;6.738;2022-12-31T09:22:14;23.30;;;21.60;;
48588;SDS011;34369;51.174;6.738;2022-12-31T09:24:48;23.60;;;21.70;;
48588;SDS011;34369;51.174;6.738;2022-12-31T09:27:23;23.90;;;21.95;;
48588;SDS011;34369;51.174;6.738;2022-12-31T09:30:04;23.35;;;21.75;;
48588;SDS011;34369;51.174;6.738;2022-12-31T09:32:41;22.42;;;20.83;;
48588;SDS011;34369;51.174;6.738;2022-12-31T09:35:28;23.58;;;21.80;;
48588;SDS011;34369;51.174;6.738;2022-12-31T09:38:10;23.27;;;21.58;;
48588;SDS011;34369;51.174;6.738;2022-12-31T09:40:49;23.25;;;21.45;;
48588;SDS011;34369;51.174;6.738;2022-12-31T09:44:22;23.40;;;21.63;;
48588;SDS011;34369;51.174;6.738;2022-12-31T09:51:06;23.40;;;21.70;;
48588;SDS011;34369;51.174;6.738;2022-12-31T09:54:14;23.50;;;21.70;;
48588;SDS011;34369;51.174;6.738;2022-12-31T09:57:33;23.50;;;21.70;;
48588;SDS011;34369;51.174;6.738;2022-12-31T10:00:12;23.42;;;21.50;;
48588;SDS011;34369;51.174;6.738;2022-12-31T10:02:57;23.25;;;21.65;;
48588;SDS011;34369;51.174;6.738;2022-12-31T10:06:03;23.92;;;22.08;;
48588;SDS011;34369;51.174;6.738;2022-12-31T10:15:41;23.55;;;21.52;;
48588;SDS011;34369;51.174;6.738;2022-12-31T10:25:25;24.95;;;22.98;;
48588;SDS011;34369;51.174;6.738;2022-12-31T10:28:44;24.10;;;22.40;;
48588;SDS011;34369;51.174;6.738;2022-12-31T10:31:32;23.40;;;21.50;;
48588;SDS011;34369;51.174;6.738;2022-12-31T10:34:16;23.20;;;21.40;;
48588;SDS011;34369;51.174;6.738;2022-12-31T10:37:01;24.13;;;21.90;;
48588;SDS011;34369;51.174;6.738;2022-12-31T10:39:42;22.92;;;21.27;;
48588;SDS011;34369;51.174;6.738;2022-12-31T10:55:37;23.00;;;21.30;;
48588;SDS011;34369;51.174;6.738;2022-12-31T10:58:42;23.60;;;21.60;;
48588;SDS011;34369;51.174;6.738;2022-12-31T11:01:57;23.02;;;21.40;;
48588;SDS011;34369;51.174;6.738;2022-12-31T11:05:09;23.55;;;21.80;;
48588;SDS011;34369;51.174;6.738;2022-12-31T11:08:49;23.45;;;21.45;;
48588;SDS011;34369;51.174;6.738;2022-12-31T11:12:18;23.63;;;21.75;;
48588;SDS011;34369;51.174;6.738;2022-12-31T11:15:29;23.83;;;22.02;;
48588;SDS011;34369;51.174;6.738;2022-12-31T11:18:23;23.63;;;21.63;;
48588;SDS011;34369;51.174;6.738;2022-12-31T11:21:08;23.95;;;22.10;;
48588;SDS011;34369;51.174;6.738;2022-12-31T11:24:02;22.77;;;20.83;;
48588;SDS011;34369;51.174;6.738;2022-12-31T11:26:51;23.73;;;21.60;;
48588;SDS011;34369;51.174;6.738;2022-12-31T11:29:41;23.00;;;21.10;;
48588;SDS011;34369;51.174;6.738;2022-12-31T11:32:38;23.00;;;21.23;;
48588;SDS011;34369;51.174;6.738;2022-12-31T11:35:30;23.55;;;21.85;;
48588;SDS011;34369;51.174;6.738;2022-12-31T11:38:23;22.98;;;21.25;;
48588;SDS011;34369;51.174;6.738;2022-12-31T11:41:01;22.95;;;21.10;;
48588;SDS011;34369;51.174;6.738;2022-12-31T11:43:47;23.60;;;21.70;;
48588;SDS011;34369;51.174;6.738;2022-12-31T11:46:33;23.52;;;21.73;;
48588;SDS011;34369;51.174;6.738;2022-12-31T11:49:37;24.27;;;22.08;;
48588;SDS011;34369;51.174;6.738;2022-12-31T11:52:32;23.90;;;21.95;;
48588;SDS011;34369;51.174;6.738;2022-12-31T11:55:24;24.05;;;22.08;;
48588;SDS011;34369;51.174;6.738;2022-12-31T11:58:31;23.80;;;22.10;;
48588;SDS011;34369;51.174;6.738;2022-12-31T12:01:07;24.13;;;22.42;;
48588;SDS011;34369;51.174;6.738;2022-12-31T12:03:45;23.20;;;21.50;;
48588;SDS011;34369;51.174;6.738;2022-12-31T12:06:22;24.50;;;22.50;;
48588;SDS011;34369;51.174;6.738;2022-12-31T12:09:02;23.33;;;21.63;;
48588;SDS011;34369;51.174;6.738;2022-12-31T12:11:38;22.65;;;20.95;;
48588;SDS011;34369;51.174;6.738;2022-12-31T12:14:18;23.27;;;21.58;;
48588;SDS011;34369;51.174;6.738;2022-12-31T12:16:53;23.27;;;21.58;;
48588;SDS011;34369;51.174;6.738;2022-12-31T12:19:32;23.67;;;21.98;;
48588;SDS011;34369;51.174;6.738;2022-12-31T12:22:20;23.38;;;21.58;;
48588;SDS011;34369;51.174;6.738;2022-12-31T12:24:57;23.85;;;22.05;;
48588;SDS011;34369;51.174;6.738;2022-12-31T12:27:37;23.13;;;21.33;;
48588;SDS011;34369;51.174;6.738;2022-12-31T12:30:16;23.83;;;22.00;;
48588;SDS011;34369;51.174;6.738;2022-12-31T12:32:53;24.90;;;23.00;;
48588;SDS011;34369;51.174;6.738;2022-12-31T12:35:28;22.75;;;21.05;;
48588;SDS011;34369;51.174;6.738;2022-12-31T12:38:13;24.52;;;22.65;;
48588;SDS011;34369;51.174;6.738;2022-12-31T12:40:54;24.23;;;21.95;;
48588;SDS011;34369;51.174;6.738;2022-12-31T12:43:29;23.42;;;21.58;;
48588;SDS011;34369;51.174;6.738;2022-12-31T12:46:05;23.98;;;22.23;;
48588;SDS011;34369;51.174;6.738;2022-12-31T12:48:52;23.00;;;21.00;;
48588;SDS011;34369;51.174;6.738;2022-12-31T12:54:41;23.08;;;21.33;;
48588;SDS011;34369;51.174;6.738;2022-12-31T12:57:32;23.15;;;21.45;;
48588;SDS011;34369;51.174;6.738;2022-12-31T13:00:14;22.80;;;21.20;;
48588;SDS011;34369;51.174;6.738;2022-12-31T13:06:10;22.95;;;21.25;;
48588;SDS011;34369;51.174;6.738;2022-12-31T13:09:02;23.52;;;21.60;;
48588;SDS011;34369;51.174;6.738;2022-12-31T13:12:02;22.65;;;20.95;;
48588;SDS011;34369;51.174;6.738;2022-12-31T13:14:45;23.70;;;21.90;;
48588;SDS011;34369;51.174;6.738;2022-12-31T13:17:31;23.05;;;21.38;;
48588;SDS011;34369;51.174;6.738;2022-12-31T13:20:29;22.92;;;21.23;;
48588;SDS011;34369;51.174;6.738;2022-12-31T13:23:13;23.52;;;21.63;;
48588;SDS011;34369;51.174;6.738;2022-12-31T13:25:57;23.02;;;21.25;;
48588;SDS011;34369;51.174;6.738;2022-12-31T13:28:46;22.73;;;21.00;;
48588;SDS011;34369;51.174;6.738;2022-12-31T13:31:25;24.40;;;22.40;;
48588;SDS011;34369;51.174;6.738;2022-12-31T13:34:03;23.50;;;21.60;;
48588;SDS011;34369;51.174;6.738;2022-12-31T13:36:43;23.85;;;21.80;;
48588;SDS011;34369;51.174;6.738;2022-12-31T13:39:19;24.58;;;22.48;;
48588;SDS011;34369;51.174;6.738;2022-12-31T13:42:00;23.90;;;21.88;;
48588;SDS011;34369;51.174;6.738;2022-12-31T13:44:43;23.67;;;21.80;;
48588;SDS011;34369;51.174;6.738;2022-12-31T13:47:23;22.75;;;20.95;;
48588;SDS011;34369;51.174;6.738;2022-12-31T13:50:07;23.63;;;21.63;;
48588;SDS011;34369;51.174;6.738;2022-12-31T13:52:50;24.17;;;22.17;;
48588;SDS011;34369;51.174;6.738;2022-12-31T13:55:29;22.95;;;21.02;;
48588;SDS011;34369;51.174;6.738;2022-12-31T13:58:08;23.80;;;22.00;;
48588;SDS011;34369;51.174;6.738;2022-12-31T14:00:49;23.58;;;21.73;;
48588;SDS011;34369;51.174;6.738;2022-12-31T14:03:37;23.85;;;21.90;;
48588;SDS011;34369;51.174;6.738;2022-12-31T14:06:20;22.85;;;20.48;;
48588;SDS011;34369;51.174;6.738;2022-12-31T14:09:00;23.05;;;20.95;;
48588;SDS011;34369;51.174;6.738;2022-12-31T14:11:40;23.30;;;21.00;;
48588;SDS011;34369;51.174;6.738;2022-12-31T14:14:41;29.45;;;21.58;;
48588;SDS011;34369;51.174;6.738;2022-12-31T14:17:27;23.13;;;20.83;;
48588;SDS011;34369;51.174;6.738;2022-12-31T14:20:13;23.93;;;21.87;;
48588;SDS011;34369;51.174;6.738;2022-12-31T14:22:56;23.48;;;21.48;;
48588;SDS011;34369;51.174;6.738;2022-12-31T14:25:41;28.55;;;22.27;;
48588;SDS011;34369;51.174;6.738;2022-12-31T14:28:22;24.60;;;22.40;;
48588;SDS011;34369;51.174;6.738;2022-12-31T14:31:07;23.77;;;21.92;;
48588;SDS011;34369;51.174;6.738;2022-12-31T14:33:51;24.63;;;22.35;;
48588;SDS011;34369;51.174;6.738;2022-12-31T14:36:32;24.15;;;22.15;;
48588;SDS011;34369;51.174;6.738;2022-12-31T14:39:20;25.00;;;22.27;;
48588;SDS011;34369;51.174;6.738;2022-12-31T14:42:09;24.05;;;22.10;;
48588;SDS011;34369;51.174;6.738;2022-12-31T14:44:57;27.65;;;22.63;;
48588;SDS011;34369;51.174;6.738;2022-12-31T14:47:49;23.90;;;22.00;;
48588;SDS011;34369;51.174;6.738;2022-12-31T14:50:29;24.52;;;22.60;;
48588;SDS011;34369;51.174;6.738;2022-12-31T14:53:07;23.38;;;21.60;;
48588;SDS011;34369;51.174;6.738;2022-12-31T14:55:57;23.70;;;21.90;;
48588;SDS011;34369;51.174;6.738;2022-12-31T14:58:33;23.48;;;21.88;;
48588;SDS011;34369;51.174;6.738;2022-12-31T15:01:17;23.75;;;21.90;;
48588;SDS011;34369;51.174;6.738;2022-12-31T15:03:55;23.52;;;21.83;;
48588;SDS011;34369;51.174;6.738;2022-12-31T15:06:34;24.52;;;22.67;;
48588;SDS011;34369;51.174;6.738;2022-12-31T15:09:36;25.67;;;22.75;;
48588;SDS011;34369;51.174;6.738;2022-12-31T15:12:37;24.20;;;22.35;;
48588;SDS011;34369;51.174;6.738;2022-12-31T15:19:04;23.60;;;21.70;;
48588;SDS011;34369;51.174;6.738;2022-12-31T15:22:32;23.75;;;22.05;;
48588;SDS011;34369;51.174;6.738;2022-12-31T15:25:18;25.90;;;24.08;;
48588;SDS011;34369;51.174;6.738;2022-12-31T15:27:57;24.13;;;22.33;;
48588;SDS011;34369;51.174;6.738;2022-12-31T15:30:38;23.83;;;21.65;;
48588;SDS011;34369;51.174;6.738;2022-12-31T15:33:17;23.80;;;22.00;;
48588;SDS011;34369;51.174;6.738;2022-12-31T15:36:09;23.80;;;22.08;;
48588;SDS011;34369;51.174;6.738;2022-12-31T15:38:53;24.50;;;22.80;;
48588;SDS011;34369;51.174;6.738;2022-12-31T15:41:55;24.70;;;22.80;;
48588;SDS011;34369;51.174;6.738;2022-12-31T15:44:29;24.00;;;22.20;;
48588;SDS011;34369;51.174;6.738;2022-12-31T15:47:22;24.27;;;22.48;;
48588;SDS011;34369;51.174;6.738;2022-12-31T15:50:02;23.90;;;22.20;;
48588;SDS011;34369;51.174;6.738;2022-12-31T15:52:40;23.83;;;22.13;;
48588;SDS011;34369;51.174;6.738;2022-12-31T15:55:20;23.90;;;22.20;;
48588;SDS011;34369;51.174;6.738;2022-12-31T15:58:01;25.02;;;22.90;;
48588;SDS011;34369;51.174;6.738;2022-12-31T16:00:42;24.50;;;22.80;;
48588;SDS011;34369;51.174;6.738;2022-12-31T16:03:27;24.27;;;22.58;;
48588;SDS011;34369;51.174;6.738;2022-12-31T16:06:03;24.02;;;22.23;;
48588;SDS011;34369;51.174;6.738;2022-12-31T16:08:43;23.90;;;22.20;;
48588;SDS011;34369;51.174;6.738;2022-12-31T16:11:21;23.63;;;21.85;;
48588;SDS011;34369;51.174;6.738;2022-12-31T16:13:55;23.95;;;22.08;;
48588;SDS011;34369;51.174;6.738;2022-12-31T16:16:30;24.48;;;22.67;;
48588;SDS011;34369;51.174;6.738;2022-12-31T16:19:13;24.52;;;22.67;;
48588;SDS011;34369;51.174;6.738;2022-12-31T16:22:01;24.58;;;22.77;;
48588;SDS011;34369;51.174;6.738;2022-12-31T16:24:39;24.63;;;22.73;;
48588;SDS011;34369;51.174;6.738;2022-12-31T16:27:13;24.25;;;22.45;;
48588;SDS011;34369;51.174;6.738;2022-12-31T16:29:47;24.70;;;22.90;;